Time;durP1;ratioP1;P1;durP2;ratioP2;P2;SDS_P1;SDS_P2;PMS_P1;PMS_P2;Temp;Humidity;BMP_temperature;BMP_pressure;BME280_temperature;BME280_humidity;BME280_pressure;Samples;Min_cycle;Max_cycle;Signal;HPM_P1;HPM_P2
2022/03/12 00:01:12;;;;;;;9.15;5.68;;;;;;;;;;6213333;28;20058;-80
2022/03/12 00:04:14;;;;;;;9.65;5.10;;;;;;;;;;6215411;28;20572;-81
2022/03/12 00:07:16;;;;;;;11.48;5.32;;;;;;;;;;6216639;28;20677;-83
2022/03/12 00:10:22;;;;;;;13.68;6.57;;;;;;;;;;6214147;28;20046;-82
2022/03/12 00:13:26;;;;;;;12.20;6.80;;;;;;;;;;6215775;28;20049;-79
2022/03/12 00:16:29;;;;;;;12.68;6.15;;;;;;;;;;6218740;28;20056;-83
2022/03/12 00:19:32;;;;;;;11.52;5.93;;;;;;;;;;6218753;28;20524;-80
2022/03/12 00:22:34;;;;;;;12.50;5.90;;;;;;;;;;6218897;28;20129;-79
2022/03/12 00:25:40;;;;;;;11.23;5.38;;;;;;;;;;6218772;28;20050;-78
2022/03/12 00:28:43;;;;;;;11.88;5.05;;;;;;;;;;6212776;28;20066;-81
2022/03/12 00:31:50;;;;;;;9.85;5.18;;;;;;;;;;6242865;28;20123;-79
2022/03/12 00:34:52;;;;;;;10.07;5.03;;;;;;;;;;6260231;28;20466;-81
2022/03/12 00:37:54;;;;;;;8.88;4.80;;;;;;;;;;6244379;28;20511;-81
2022/03/12 00:40:56;;;;;;;9.50;4.78;;;;;;;;;;6244877;28;20426;-81
2022/03/12 00:43:58;;;;;;;8.13;4.35;;;;;;;;;;6255729;28;20062;-83
2022/03/12 00:47:01;;;;;;;8.00;4.45;;;;;;;;;;6220936;28;20612;-81
2022/03/12 00:50:04;;;;;;;8.35;4.35;;;;;;;;;;6223286;28;20049;-81
2022/03/12 00:53:06;;;;;;;9.30;5.13;;;;;;;;;;6221226;28;20752;-80
2022/03/12 00:56:08;;;;;;;9.23;4.43;;;;;;;;;;6213675;28;20188;-81
2022/03/12 00:59:10;;;;;;;11.60;4.50;;;;;;;;;;6220706;28;20050;-82
2022/03/12 01:02:15;;;;;;;8.02;4.13;;;;;;;;;;6225516;28;20053;-80
2022/03/12 01:05:39;;;;;;;8.52;4.50;;;;;;;;;;6240124;28;20499;-82
2022/03/12 01:08:42;;;;;;;9.07;4.97;;;;;;;;;;6241045;28;20045;-80
2022/03/12 01:11:45;;;;;;;11.20;4.20;;;;;;;;;;6239344;28;20132;-81
2022/03/12 01:14:48;;;;;;;;;;;;;;;;;;6201859;28;20566;-82
2022/03/12 01:17:52;;;;;;;10.38;4.53;;;;;;;;;;6216772;28;20003;-79
2022/03/12 01:20:55;;;;;;;9.75;4.40;;;;;;;;;;6231447;28;20388;-83
2022/03/12 01:23:58;;;;;;;9.57;4.55;;;;;;;;;;6216477;28;20053;-82
2022/03/12 01:27:00;;;;;;;8.10;4.43;;;;;;;;;;6217603;28;20050;-78
2022/03/12 01:30:07;;;;;;;10.23;4.72;;;;;;;;;;6230130;28;20069;-80
2022/03/12 01:33:09;;;;;;;8.38;4.00;;;;;;;;;;6242469;28;20045;-82
2022/03/12 01:36:12;;;;;;;6.80;4.00;;;;;;;;;;6226564;28;20084;-83
2022/03/12 01:39:14;;;;;;;10.45;4.10;;;;;;;;;;6219263;28;20591;-80
2022/03/12 01:42:19;;;;;;;6.57;3.67;;;;;;;;;;6216502;28;20049;-80
2022/03/12 01:45:26;;;;;;;7.00;3.90;;;;;;;;;;6219134;28;20050;-81
2022/03/12 01:48:33;;;;;;;6.32;3.60;;;;;;;;;;6242481;28;20041;-81
2022/03/12 01:51:37;;;;;;;7.28;4.00;;;;;;;;;;6235977;28;20049;-80
2022/03/12 01:54:42;;;;;;;9.70;4.50;;;;;;;;;;6243134;28;20065;-81
2022/03/12 01:57:43;;;;;;;8.57;3.80;;;;;;;;;;6248417;28;20037;-81
2022/03/12 02:00:50;;;;;;;7.90;3.53;;;;;;;;;;6217914;28;20038;-81
2022/03/12 02:03:52;;;;;;;8.35;4.20;;;;;;;;;;6219310;28;20112;-80
2022/03/12 02:06:53;;;;;;;8.90;4.32;;;;;;;;;;6234664;28;20451;-82
2022/03/12 02:09:55;;;;;;;9.93;4.95;;;;;;;;;;6242446;28;20465;-84
2022/03/12 02:12:57;;;;;;;10.27;4.82;;;;;;;;;;6231964;28;20084;-84
2022/03/12 02:16:07;;;;;;;14.45;4.95;;;;;;;;;;6216357;28;20078;-81
2022/03/12 02:19:09;;;;;;;9.80;4.32;;;;;;;;;;6216825;28;20057;-85
2022/03/12 02:22:15;;;;;;;10.70;5.20;;;;;;;;;;6228788;28;20497;-81
2022/03/12 02:25:17;;;;;;;8.15;4.10;;;;;;;;;;6238862;28;20069;-82
2022/03/12 02:28:19;;;;;;;6.63;3.85;;;;;;;;;;6214778;28;20129;-82
2022/03/12 02:31:26;;;;;;;8.80;4.15;;;;;;;;;;6216075;28;20541;-81
2022/03/12 02:34:32;;;;;;;7.22;3.72;;;;;;;;;;6215817;28;20042;-81
2022/03/12 02:37:34;;;;;;;7.80;4.00;;;;;;;;;;6245416;28;20054;-81
2022/03/12 02:40:36;;;;;;;6.57;3.60;;;;;;;;;;6226442;28;20168;-81
2022/03/12 02:43:44;;;;;;;8.35;3.60;;;;;;;;;;6220753;28;20042;-82
2022/03/12 02:47:20;;;;;;;6.30;4.03;;;;;;;;;;6225764;28;20056;-81
2022/03/12 02:50:23;;;;;;;7.65;3.53;;;;;;;;;;6231188;28;20519;-84
2022/03/12 02:53:27;;;;;;;7.50;3.90;;;;;;;;;;6218016;28;20049;-83
2022/03/12 02:56:29;;;;;;;7.38;3.60;;;;;;;;;;6235688;28;20043;-81
2022/03/12 02:59:32;;;;;;;9.57;3.80;;;;;;;;;;6218275;28;20123;-81
2022/03/12 03:02:41;;;;;;;6.57;3.70;;;;;;;;;;6247790;28;20615;-81
2022/03/12 03:05:47;;;;;;;5.65;3.03;;;;;;;;;;6217056;28;20042;-81
2022/03/12 03:08:49;;;;;;;8.75;3.55;;;;;;;;;;6237649;28;20053;-81
2022/03/12 03:11:53;;;;;;;6.05;3.45;;;;;;;;;;6240269;28;20045;-83
2022/03/12 03:14:55;;;;;;;8.52;4.15;;;;;;;;;;6215672;28;20127;-81
2022/03/12 03:17:57;;;;;;;6.32;3.42;;;;;;;;;;6217703;28;20148;-80
2022/03/12 03:21:00;;;;;;;6.07;3.40;;;;;;;;;;6220787;28;20145;-83
2022/03/12 03:24:05;;;;;;;5.68;3.60;;;;;;;;;;6242494;28;20157;-80
2022/03/12 03:27:07;;;;;;;6.18;3.67;;;;;;;;;;6242668;28;20049;-81
2022/03/12 03:30:09;;;;;;;4.68;3.20;;;;;;;;;;6244574;28;20097;-80
2022/03/12 03:33:17;;;;;;;6.63;3.60;;;;;;;;;;6246355;28;20114;-81
2022/03/12 03:36:19;;;;;;;8.75;3.30;;;;;;;;;;6236728;28;20128;-80
2022/03/12 03:39:21;;;;;;;7.28;3.38;;;;;;;;;;6221861;28;20053;-81
2022/03/12 03:42:23;;;;;;;9.45;4.18;;;;;;;;;;6220124;28;20053;-82
2022/03/12 03:45:27;;;;;;;6.88;4.15;;;;;;;;;;6222263;28;20129;-81
2022/03/12 03:48:37;;;;;;;7.30;3.80;;;;;;;;;;6219471;28;20065;-81
2022/03/12 03:51:41;;;;;;;5.97;3.42;;;;;;;;;;6238403;28;20049;-81
2022/03/12 03:54:43;;;;;;;10.65;4.13;;;;;;;;;;6232224;28;20052;-83
2022/03/12 03:57:45;;;;;;;8.82;3.65;;;;;;;;;;6234511;28;20049;-82
2022/03/12 04:00:57;;;;;;;12.20;3.80;;;;;;;;;;6243714;28;20143;-81
2022/03/12 04:04:00;;;;;;;7.35;3.90;;;;;;;;;;6228284;28;20109;-81
2022/03/12 04:07:04;;;;;;;6.63;3.63;;;;;;;;;;6215314;28;20127;-83
2022/03/12 04:10:07;;;;;;;11.75;4.22;;;;;;;;;;6222430;28;20044;-81
2022/03/12 04:13:19;;;;;;;7.43;3.70;;;;;;;;;;6234835;28;20109;-81
2022/03/12 04:16:21;;;;;;;6.40;3.40;;;;;;;;;;6260620;28;20156;-81
2022/03/12 04:19:23;;;;;;;7.10;3.63;;;;;;;;;;6246234;28;20041;-82
2022/03/12 04:22:26;;;;;;;6.55;3.33;;;;;;;;;;6235204;28;20049;-81
2022/03/12 04:25:31;;;;;;;7.65;3.70;;;;;;;;;;6220260;28;20127;-81
2022/03/12 04:28:33;;;;;;;6.15;3.53;;;;;;;;;;6221058;28;20140;-81
2022/03/12 04:31:35;;;;;;;8.35;3.65;;;;;;;;;;6223186;28;20041;-81
2022/03/12 04:34:37;;;;;;;7.07;4.23;;;;;;;;;;6218037;28;20121;-81
2022/03/12 04:37:39;;;;;;;6.50;3.53;;;;;;;;;;6219775;28;20050;-80
2022/03/12 04:40:43;;;;;;;6.80;3.60;;;;;;;;;;6228019;28;20046;-82
2022/03/12 04:43:49;;;;;;;7.25;3.30;;;;;;;;;;6234008;28;20041;-84
2022/03/12 04:46:50;;;;;;;8.45;3.38;;;;;;;;;;6227623;28;20042;-83
2022/03/12 04:49:53;;;;;;;8.50;3.90;;;;;;;;;;6240925;28;20080;-82
2022/03/12 04:53:00;;;;;;;7.63;3.75;;;;;;;;;;6216794;28;20185;-83
2022/03/12 04:56:01;;;;;;;6.15;3.47;;;;;;;;;;6217581;28;20070;-83
2022/03/12 04:59:03;;;;;;;6.50;3.35;;;;;;;;;;6220759;28;20535;-83
2022/03/12 05:02:10;;;;;;;6.22;3.65;;;;;;;;;;6234510;28;20114;-82
2022/03/12 05:05:14;;;;;;;6.30;3.90;;;;;;;;;;6238693;28;20056;-80
2022/03/12 05:08:21;;;;;;;7.05;3.58;;;;;;;;;;6223978;28;20058;-83
2022/03/12 05:11:23;;;;;;;8.52;4.20;;;;;;;;;;6208317;28;20045;-78
2022/03/12 05:14:24;;;;;;;6.07;3.58;;;;;;;;;;6215315;28;20051;-79
2022/03/12 05:17:26;;;;;;;8.88;3.90;;;;;;;;;;6236482;28;20037;-81
2022/03/12 05:20:28;;;;;;;12.50;3.80;;;;;;;;;;6236038;28;20045;-82
2022/03/12 05:23:29;;;;;;;8.65;3.75;;;;;;;;;;6248547;28;20037;-79
2022/03/12 05:26:31;;;;;;;7.85;3.58;;;;;;;;;;6263134;28;20082;-82
2022/03/12 05:29:38;;;;;;;6.82;3.83;;;;;;;;;;6212925;28;20515;-80
2022/03/12 05:32:40;;;;;;;7.35;4.07;;;;;;;;;;6215410;28;20192;-80
2022/03/12 05:35:43;;;;;;;7.43;3.50;;;;;;;;;;6236587;28;20076;-81
2022/03/12 05:38:45;;;;;;;10.95;4.97;;;;;;;;;;6224845;28;20092;-79
2022/03/12 05:41:48;;;;;;;7.93;4.20;;;;;;;;;;6217055;28;20128;-81
2022/03/12 05:44:50;;;;;;;8.40;3.85;;;;;;;;;;6241878;28;20179;-82
2022/03/12 05:47:52;;;;;;;8.67;3.63;;;;;;;;;;6256428;28;20041;-82
2022/03/12 05:50:54;;;;;;;7.50;3.88;;;;;;;;;;6236335;28;20065;-80
2022/03/12 05:53:56;;;;;;;10.60;4.53;;;;;;;;;;6211301;28;20129;-81
2022/03/12 05:56:59;;;;;;;8.20;4.10;;;;;;;;;;6227156;28;20124;-79
2022/03/12 06:00:02;;;;;;;15.03;7.13;;;;;;;;;;6212839;28;20499;-80
2022/03/12 06:03:13;;;;;;;12.20;5.82;;;;;;;;;;6212386;28;20464;-78
2022/03/12 06:06:15;;;;;;;12.30;5.22;;;;;;;;;;6214344;28;20615;-80
2022/03/12 06:09:17;;;;;;;9.23;4.78;;;;;;;;;;6212252;28;20108;-80
2022/03/12 06:12:20;;;;;;;8.90;4.70;;;;;;;;;;6217597;28;20133;-80
2022/03/12 06:15:23;;;;;;;11.13;4.85;;;;;;;;;;6237046;28;20069;-79
2022/03/12 06:18:26;;;;;;;;;;;;;;;;;;6233239;28;20033;-79
2022/03/12 06:21:28;;;;;;;12.77;4.50;;;;;;;;;;6216152;28;20008;-81
2022/03/12 06:24:30;;;;;;;11.95;5.30;;;;;;;;;;6216193;28;20191;-82
2022/03/12 06:27:32;;;;;;;11.48;5.40;;;;;;;;;;6223266;28;20036;-80
2022/03/12 06:30:33;;;;;;;11.68;4.78;;;;;;;;;;6241612;28;20055;-80
2022/03/12 06:33:35;;;;;;;9.63;5.50;;;;;;;;;;6221103;28;20070;-82
2022/03/12 06:36:37;;;;;;;14.55;7.13;;;;;;;;;;6216775;28;20097;-79
2022/03/12 06:39:39;;;;;;;11.13;6.07;;;;;;;;;;6234922;28;20116;-81
2022/03/12 06:42:43;;;;;;;9.23;5.15;;;;;;;;;;6227613;28;20136;-81
2022/03/12 06:45:44;;;;;;;;;;;;;;;;;;6213000;28;20422;-79
2022/03/12 06:48:46;;;;;;;10.57;5.03;;;;;;;;;;6235885;28;20062;-80
2022/03/12 06:51:48;;;;;;;9.13;4.68;;;;;;;;;;6231758;28;20129;-80
2022/03/12 06:54:51;;;;;;;10.05;4.70;;;;;;;;;;6212574;28;20052;-82
2022/03/12 06:57:53;;;;;;;;;;;;;;;;;;6219992;28;20064;-80
2022/03/12 07:00:55;;;;;;;9.27;4.20;;;;;;;;;;6238898;28;19925;-80
2022/03/12 07:03:57;;;;;;;11.95;4.88;;;;;;;;;;6223992;28;20109;-81
2022/03/12 07:07:00;;;;;;;9.65;5.25;;;;;;;;;;6237335;28;20617;-82
2022/03/12 07:10:02;;;;;;;6.88;4.25;;;;;;;;;;6240404;28;20128;-80
2022/03/12 07:13:04;;;;;;;8.85;4.68;;;;;;;;;;6242345;28;20049;-80
2022/03/12 07:16:06;;;;;;;8.40;4.10;;;;;;;;;;6242937;28;20528;-80
2022/03/12 07:19:07;;;;;;;9.43;5.00;;;;;;;;;;6243769;28;20044;-81
2022/03/12 07:22:09;;;;;;;7.53;4.05;;;;;;;;;;6224476;28;20124;-82
2022/03/12 07:25:12;;;;;;;8.25;4.30;;;;;;;;;;6245361;28;20052;-80
2022/03/12 07:28:17;;;;;;;7.35;4.47;;;;;;;;;;6230156;28;20073;-82
2022/03/12 07:31:23;;;;;;;8.13;3.85;;;;;;;;;;6219088;28;20054;-80
2022/03/12 07:34:25;;;;;;;8.07;5.30;;;;;;;;;;6223604;28;20053;-79
2022/03/12 07:37:27;;;;;;;7.80;4.25;;;;;;;;;;6222577;28;20071;-80
2022/03/12 07:40:29;;;;;;;7.25;4.10;;;;;;;;;;6251061;28;20465;-82
2022/03/12 07:43:30;;;;;;;7.80;4.60;;;;;;;;;;6251230;28;20124;-86
2022/03/12 07:46:36;;;;;;;10.80;4.50;;;;;;;;;;6221235;28;20072;-84
2022/03/12 07:49:38;;;;;;;10.43;4.45;;;;;;;;;;6220925;28;20598;-83
2022/03/12 07:52:41;;;;;;;9.88;4.78;;;;;;;;;;6236715;28;20827;-81
2022/03/12 07:55:42;;;;;;;14.52;5.38;;;;;;;;;;6217240;28;20492;-82
2022/03/12 07:58:44;;;;;;;11.63;5.20;;;;;;;;;;6237578;28;20183;-83
2022/03/12 08:01:46;;;;;;;11.82;5.05;;;;;;;;;;6243808;28;20108;-81
2022/03/12 08:04:48;;;;;;;9.40;4.53;;;;;;;;;;6243327;28;20045;-80
2022/03/12 08:07:50;;;;;;;7.38;4.78;;;;;;;;;;6242442;28;20132;-81
2022/03/12 08:14:15;;;;;;;10.18;4.20;;;;;;;;;;6243515;28;20127;-81
2022/03/12 08:17:19;;;;;;;8.65;4.80;;;;;;;;;;6244433;28;20045;-81
2022/03/12 08:20:21;;;;;;;11.45;5.13;;;;;;;;;;6241413;28;20069;-82
2022/03/12 08:23:23;;;;;;;10.02;4.47;;;;;;;;;;6232712;28;20077;-85
2022/03/12 08:26:25;;;;;;;9.43;4.90;;;;;;;;;;6230326;28;20104;-78
2022/03/12 08:29:27;;;;;;;10.30;4.72;;;;;;;;;;6232359;28;20117;-84
2022/03/12 08:32:29;;;;;;;8.98;4.68;;;;;;;;;;6216587;28;20067;-80
2022/03/12 08:35:31;;;;;;;11.05;5.63;;;;;;;;;;6228439;28;20119;-80
2022/03/12 08:38:35;;;;;;;13.77;5.72;;;;;;;;;;6232326;28;20496;-81
2022/03/12 08:41:38;;;;;;;7.53;4.22;;;;;;;;;;6240774;28;20107;-81
2022/03/12 08:44:40;;;;;;;8.82;4.50;;;;;;;;;;6225089;28;20069;-83
2022/03/12 08:47:43;;;;;;;7.82;4.45;;;;;;;;;;6213746;28;20092;-81
2022/03/12 08:50:46;;;;;;;11.95;5.18;;;;;;;;;;6225948;28;20411;-83
2022/03/12 08:53:47;;;;;;;10.32;4.88;;;;;;;;;;6188301;28;1102713;-82
2022/03/12 08:56:49;;;;;;;9.25;4.85;;;;;;;;;;6230194;28;20061;-82
2022/03/12 08:59:51;;;;;;;9.52;4.70;;;;;;;;;;6251527;28;20129;-78
2022/03/12 09:02:52;;;;;;;9.77;5.20;;;;;;;;;;6220309;28;20177;-81
2022/03/12 09:05:54;;;;;;;7.95;4.95;;;;;;;;;;6205005;28;20045;-81
2022/03/12 09:08:58;;;;;;;14.20;5.57;;;;;;;;;;6220865;28;20065;-78
2022/03/12 09:12:00;;;;;;;;;;;;;;;;;;6230308;28;20132;-79
2022/03/12 09:15:02;;;;;;;7.75;4.78;;;;;;;;;;6219197;28;20132;-79
2022/03/12 09:18:03;;;;;;;7.82;4.60;;;;;;;;;;6215715;28;20139;-81
2022/03/12 09:21:05;;;;;;;7.63;4.68;;;;;;;;;;6213973;28;20038;-77
2022/03/12 09:24:07;;;;;;;8.43;4.70;;;;;;;;;;6212452;28;20100;-77
2022/03/12 09:27:09;;;;;;;10.25;5.05;;;;;;;;;;6212108;28;20124;-78
2022/03/12 09:30:14;;;;;;;11.07;4.93;;;;;;;;;;6215556;28;20046;-79
2022/03/12 09:33:17;;;;;;;9.13;5.70;;;;;;;;;;6218973;28;20123;-80
2022/03/12 09:36:19;;;;;;;9.15;5.40;;;;;;;;;;6222331;28;20151;-81
2022/03/12 09:39:20;;;;;;;8.95;5.28;;;;;;;;;;6274932;28;20132;-80
2022/03/12 09:42:28;;;;;;;10.88;5.72;;;;;;;;;;6237061;28;20046;-80
2022/03/12 09:45:30;;;;;;;10.77;5.55;;;;;;;;;;6199945;28;20045;-79
2022/03/12 09:48:32;;;;;;;12.63;6.03;;;;;;;;;;6240371;28;20529;-80
2022/03/12 09:51:33;;;;;;;17.80;6.57;;;;;;;;;;6239427;28;20065;-80
2022/03/12 09:54:35;;;;;;;9.45;5.68;;;;;;;;;;6242062;28;20061;-78
2022/03/12 09:57:37;;;;;;;9.70;5.90;;;;;;;;;;6225602;28;20620;-81
2022/03/12 10:00:39;;;;;;;10.05;5.70;;;;;;;;;;6218658;28;20046;-78
2022/03/12 10:03:42;;;;;;;16.25;7.20;;;;;;;;;;6220911;28;20042;-79
2022/03/12 10:06:44;;;;;;;8.82;5.88;;;;;;;;;;6214652;28;20107;-79
2022/03/12 10:09:46;;;;;;;12.13;7.05;;;;;;;;;;6218158;28;20049;-78
2022/03/12 10:12:49;;;;;;;10.38;6.15;;;;;;;;;;6227745;28;20479;-78
2022/03/12 10:15:51;;;;;;;9.98;5.60;;;;;;;;;;6212846;28;20045;-80
2022/03/12 10:18:53;;;;;;;12.30;6.20;;;;;;;;;;6240163;28;20045;-79
2022/03/12 10:21:55;;;;;;;13.82;7.72;;;;;;;;;;6239487;28;20097;-81
2022/03/12 10:24:56;;;;;;;11.63;5.88;;;;;;;;;;6238658;28;20120;-82
2022/03/12 10:28:02;;;;;;;10.98;6.30;;;;;;;;;;6237058;28;20045;-82
2022/03/12 10:31:07;;;;;;;11.18;6.53;;;;;;;;;;6213924;28;20073;-82
2022/03/12 10:34:23;;;;;;;11.35;6.20;;;;;;;;;;6216282;28;20056;-81
2022/03/12 10:37:31;;;;;;;12.38;7.03;;;;;;;;;;6216079;28;20045;-81
2022/03/12 10:40:33;;;;;;;13.68;8.52;;;;;;;;;;6199649;28;20049;-80
2022/03/12 10:43:49;;;;;;;10.25;6.40;;;;;;;;;;6264533;28;20152;-79
2022/03/12 10:46:51;;;;;;;8.70;5.88;;;;;;;;;;6238778;28;20119;-78
2022/03/12 10:50:06;;;;;;;12.60;6.72;;;;;;;;;;6238306;28;20042;-80
2022/03/12 10:53:09;;;;;;;9.60;6.18;;;;;;;;;;6220860;28;20488;-82
2022/03/12 10:56:10;;;;;;;9.90;6.22;;;;;;;;;;6207029;28;20121;-78
2022/03/12 10:59:19;;;;;;;10.53;6.63;;;;;;;;;;6213290;28;20578;-81
2022/03/12 11:02:28;;;;;;;10.23;6.25;;;;;;;;;;6213907;28;20051;-80
2022/03/12 11:05:35;;;;;;;12.77;6.72;;;;;;;;;;6214702;28;20046;-78
2022/03/12 11:08:38;;;;;;;10.40;5.93;;;;;;;;;;6217789;28;20099;-79
2022/03/12 11:11:43;;;;;;;10.82;6.38;;;;;;;;;;6230790;28;20050;-80
2022/03/12 11:15:00;;;;;;;;;;;;;;;;;;6222206;28;20530;-80
2022/03/12 11:18:07;;;;;;;10.70;6.80;;;;;;;;;;6237648;28;19928;-79
2022/03/12 11:21:09;;;;;;;8.93;6.13;;;;;;;;;;6238678;28;20101;-79
2022/03/12 11:24:42;;;;;;;11.73;6.80;;;;;;;;;;6240508;28;20048;-81
2022/03/12 11:27:45;;;;;;;13.55;6.97;;;;;;;;;;6246527;28;20097;-80
2022/03/12 11:30:47;;;;;;;9.90;6.35;;;;;;;;;;6214561;28;20721;-82
2022/03/12 11:33:49;;;;;;;10.48;6.90;;;;;;;;;;6215243;28;20671;-81
2022/03/12 11:37:07;;;;;;;10.18;6.53;;;;;;;;;;6213541;28;20450;-81
2022/03/12 11:40:16;;;;;;;10.77;6.43;;;;;;;;;;6215261;28;20050;-79
2022/03/12 11:43:27;;;;;;;12.20;6.93;;;;;;;;;;6230422;28;20046;-80
2022/03/12 11:46:36;;;;;;;13.27;7.22;;;;;;;;;;6228392;28;20163;-80
2022/03/12 11:49:39;;;;;;;10.73;6.38;;;;;;;;;;6227172;28;20507;-80
2022/03/12 11:52:42;;;;;;;10.38;6.28;;;;;;;;;;6231627;28;20037;-78
2022/03/12 11:55:51;;;;;;;10.98;6.50;;;;;;;;;;6236895;28;20219;-77
2022/03/12 11:58:53;;;;;;;11.80;7.18;;;;;;;;;;6207906;28;20132;-78
2022/03/12 12:02:31;;;;;;;10.68;6.97;;;;;;;;;;6219149;28;20056;-77
2022/03/12 12:05:34;;;;;;;10.75;6.57;;;;;;;;;;6217410;28;20038;-78
2022/03/12 12:08:37;;;;;;;12.07;6.00;;;;;;;;;;6229852;28;20058;-82
2022/03/12 12:11:38;;;;;;;9.68;6.78;;;;;;;;;;6212820;28;20053;-78
2022/03/12 12:14:43;;;;;;;12.25;6.82;;;;;;;;;;6221343;28;20046;-79
2022/03/12 12:17:45;;;;;;;12.23;7.20;;;;;;;;;;6214466;28;20100;-79
2022/03/12 12:20:46;;;;;;;9.68;6.30;;;;;;;;;;6211235;28;20052;-79
2022/03/12 12:23:48;;;;;;;13.40;6.80;;;;;;;;;;6224894;28;20183;-80
2022/03/12 12:27:12;;;;;;;12.25;6.95;;;;;;;;;;6211755;28;20042;-81
2022/03/12 12:30:39;;;;;;;11.48;6.57;;;;;;;;;;6216460;28;20121;-80
2022/03/12 12:33:43;;;;;;;11.32;7.43;;;;;;;;;;6226047;28;20056;-78
2022/03/12 12:36:58;;;;;;;14.13;7.30;;;;;;;;;;6249684;28;20638;-82
2022/03/12 12:40:17;;;;;;;11.80;7.07;;;;;;;;;;6230159;28;20052;-81
2022/03/12 12:43:28;;;;;;;10.23;6.68;;;;;;;;;;6250660;28;20045;-82
2022/03/12 12:46:30;;;;;;;13.65;7.30;;;;;;;;;;6221603;28;20081;-80
2022/03/12 12:49:39;;;;;;;10.33;6.50;;;;;;;;;;6250160;28;20100;-80
2022/03/12 12:53:14;;;;;;;17.15;10.55;;;;;;;;;;6219409;28;20063;-79
2022/03/12 12:56:21;;;;;;;10.30;6.80;;;;;;;;;;6221233;28;20654;-79
2022/03/12 12:59:44;;;;;;;24.02;11.43;;;;;;;;;;6214416;28;20042;-79
2022/03/12 13:02:49;;;;;;;14.30;8.82;;;;;;;;;;6230120;28;20120;-81
2022/03/12 13:05:53;;;;;;;14.40;8.98;;;;;;;;;;6173047;28;20234;-80
2022/03/12 13:08:57;;;;;;;13.40;8.80;;;;;;;;;;6192622;28;20046;-83
2022/03/12 13:12:05;;;;;;;10.13;6.88;;;;;;;;;;6233023;28;20100;-80
2022/03/12 13:15:14;;;;;;;11.57;7.32;;;;;;;;;;6240968;28;20132;-80
2022/03/12 13:18:27;;;;;;;14.40;9.00;;;;;;;;;;6238472;28;20053;-80
2022/03/12 13:21:33;;;;;;;10.27;6.50;;;;;;;;;;6234445;28;20065;-80
2022/03/12 13:25:11;;;;;;;12.27;7.57;;;;;;;;;;6215993;28;20060;-82
2022/03/12 13:28:13;;;;;;;11.07;7.22;;;;;;;;;;6213310;28;20123;-81
2022/03/12 13:31:24;;;;;;;10.35;6.75;;;;;;;;;;6212989;28;20219;-81
2022/03/12 13:34:26;;;;;;;13.02;8.02;;;;;;;;;;6211518;28;20054;-82
2022/03/12 13:37:28;;;;;;;10.23;7.20;;;;;;;;;;6259481;28;20124;-82
2022/03/12 13:40:32;;;;;;;11.95;7.50;;;;;;;;;;6240917;28;20041;-79
2022/03/12 13:43:35;;;;;;;11.70;7.40;;;;;;;;;;6238381;28;20339;-80
2022/03/12 13:46:38;;;;;;;16.85;10.13;;;;;;;;;;6240052;28;21129;-80
2022/03/12 13:49:40;;;;;;;10.82;6.80;;;;;;;;;;6240199;28;20365;-80
2022/03/12 13:52:42;;;;;;;12.13;7.60;;;;;;;;;;6225680;28;20066;-80
2022/03/12 13:55:44;;;;;;;12.57;8.23;;;;;;;;;;6221515;28;20079;-81
2022/03/12 13:58:46;;;;;;;10.38;7.57;;;;;;;;;;6218600;28;20133;-81
2022/03/12 14:01:52;;;;;;;10.27;7.43;;;;;;;;;;6251176;28;20086;-81
2022/03/12 14:04:55;;;;;;;12.93;8.00;;;;;;;;;;6213433;28;20533;-80
2022/03/12 14:08:00;;;;;;;;;;;;;;;;;;6232955;28;20049;-79
2022/03/12 14:11:07;;;;;;;11.05;6.80;;;;;;;;;;6251329;28;20008;-78
2022/03/12 14:14:12;;;;;;;12.63;7.78;;;;;;;;;;6215942;28;20188;-79
2022/03/12 14:17:14;;;;;;;11.65;7.70;;;;;;;;;;6215031;28;20080;-82
2022/03/12 14:20:16;;;;;;;17.23;9.30;;;;;;;;;;6215050;28;20113;-84
2022/03/12 14:23:23;;;;;;;11.70;6.95;;;;;;;;;;6223221;28;20124;-81
2022/03/12 14:26:51;;;;;;;11.82;7.45;;;;;;;;;;6216063;28;20058;-81
2022/03/12 14:29:54;;;;;;;12.07;7.90;;;;;;;;;;6214403;28;20041;-81
2022/03/12 14:32:56;;;;;;;18.75;10.02;;;;;;;;;;6216686;28;20088;-81
2022/03/12 14:35:58;;;;;;;13.05;8.13;;;;;;;;;;6214526;28;20127;-82
2022/03/12 14:39:03;;;;;;;11.95;7.78;;;;;;;;;;6216628;28;20142;-82
2022/03/12 14:42:08;;;;;;;10.38;7.15;;;;;;;;;;6219467;28;20716;-82
2022/03/12 14:45:12;;;;;;;13.75;8.07;;;;;;;;;;6239253;28;20060;-81
2022/03/12 14:48:15;;;;;;;14.00;7.78;;;;;;;;;;6219075;28;20396;-81
2022/03/12 14:51:19;;;;;;;11.68;7.85;;;;;;;;;;6238702;28;20050;-80
2022/03/12 14:54:23;;;;;;;11.82;7.55;;;;;;;;;;6214603;28;20783;-81
2022/03/12 14:57:27;;;;;;;17.17;8.55;;;;;;;;;;6214193;28;20053;-80
2022/03/12 15:00:29;;;;;;;12.75;7.90;;;;;;;;;;6212341;28;20104;-80
2022/03/12 15:03:33;;;;;;;12.55;7.55;;;;;;;;;;6231078;28;20050;-85
2022/03/12 15:06:36;;;;;;;11.57;8.00;;;;;;;;;;6245689;28;20049;-82
2022/03/12 15:09:59;;;;;;;13.80;7.70;;;;;;;;;;6225987;28;20404;-81
2022/03/12 15:13:00;;;;;;;13.27;8.03;;;;;;;;;;6232498;28;20089;-82
2022/03/12 15:16:03;;;;;;;13.07;7.32;;;;;;;;;;6238662;28;20053;-82
2022/03/12 15:19:13;;;;;;;18.02;7.88;;;;;;;;;;6245002;28;20064;-80
2022/03/12 15:22:24;;;;;;;13.38;7.80;;;;;;;;;;6218960;28;20108;-79
2022/03/12 15:25:35;;;;;;;17.15;8.30;;;;;;;;;;6219938;28;20132;-82
2022/03/12 15:28:45;;;;;;;13.18;7.68;;;;;;;;;;6228090;28;20038;-79
2022/03/12 15:31:47;;;;;;;13.27;8.05;;;;;;;;;;6222424;28;20042;-79
2022/03/12 15:34:52;;;;;;;11.45;7.40;;;;;;;;;;6221414;28;20507;-81
2022/03/12 15:37:54;;;;;;;11.77;7.70;;;;;;;;;;6233197;28;20123;-79
2022/03/12 15:40:56;;;;;;;13.75;8.27;;;;;;;;;;6244027;28;20053;-81
2022/03/12 15:44:01;;;;;;;11.47;7.47;;;;;;;;;;6245157;28;20175;-82
2022/03/12 15:47:03;;;;;;;12.05;7.82;;;;;;;;;;6233711;28;20045;-79
2022/03/12 15:50:07;;;;;;;14.77;7.93;;;;;;;;;;6220561;28;20096;-80
2022/03/12 15:53:29;;;;;;;12.23;7.63;;;;;;;;;;6222975;28;20050;-79
2022/03/12 15:56:31;;;;;;;12.80;7.75;;;;;;;;;;6226158;28;20054;-81
2022/03/12 15:59:32;;;;;;;15.20;8.93;;;;;;;;;;6226015;28;20038;-83
2022/03/12 16:02:34;;;;;;;15.77;10.10;;;;;;;;;;6224881;28;20041;-82
2022/03/12 16:05:37;;;;;;;14.93;8.80;;;;;;;;;;6224941;28;20088;-80
2022/03/12 16:08:39;;;;;;;13.88;7.68;;;;;;;;;;6243105;28;20065;-81
2022/03/12 16:11:40;;;;;;;16.95;9.18;;;;;;;;;;6248546;28;20124;-79
2022/03/12 16:14:43;;;;;;;14.30;8.30;;;;;;;;;;6221713;28;20141;-79
2022/03/12 16:17:51;;;;;;;14.35;7.95;;;;;;;;;;6226317;28;20057;-80
2022/03/12 16:20:56;;;;;;;16.38;8.50;;;;;;;;;;6234475;28;20069;-82
2022/03/12 16:23:58;;;;;;;12.43;7.75;;;;;;;;;;6262367;28;20056;-80
2022/03/12 16:27:00;;;;;;;12.07;7.82;;;;;;;;;;6255804;28;20038;-82
2022/03/12 16:30:04;;;;;;;15.02;7.88;;;;;;;;;;6253683;28;20138;-82
2022/03/12 16:33:05;;;;;;;15.93;8.32;;;;;;;;;;6227170;28;20045;-82
2022/03/12 16:36:07;;;;;;;12.80;7.72;;;;;;;;;;6223354;28;20042;-82
2022/03/12 16:39:10;;;;;;;14.20;8.82;;;;;;;;;;6220700;28;20526;-82
2022/03/12 16:42:12;;;;;;;18.33;8.57;;;;;;;;;;6230864;28;20084;-81
2022/03/12 16:45:15;;;;;;;15.47;7.67;;;;;;;;;;6219505;28;20472;-79
2022/03/12 16:48:19;;;;;;;10.48;6.82;;;;;;;;;;6233111;28;20136;-79
2022/03/12 16:51:20;;;;;;;13.32;7.35;;;;;;;;;;6238254;28;20046;-79
2022/03/12 16:54:22;;;;;;;11.27;6.18;;;;;;;;;;6220221;28;20263;-81
2022/03/12 16:57:24;;;;;;;13.98;7.53;;;;;;;;;;6225875;28;20135;-82
2022/03/12 17:00:33;;;;;;;12.32;6.35;;;;;;;;;;6260295;28;20047;-82
2022/03/12 17:03:36;;;;;;;12.60;7.47;;;;;;;;;;6244863;28;20046;-79
2022/03/12 17:06:37;;;;;;;13.45;7.57;;;;;;;;;;6221983;28;20044;-79
2022/03/12 17:09:39;;;;;;;15.40;9.15;;;;;;;;;;6221468;28;20034;-79
2022/03/12 17:12:42;;;;;;;12.98;7.50;;;;;;;;;;6222798;28;20042;-80
2022/03/12 17:15:44;;;;;;;14.45;7.90;;;;;;;;;;6226552;28;20052;-80
2022/03/12 17:18:46;;;;;;;22.02;12.20;;;;;;;;;;6238644;28;20042;-79
2022/03/12 17:21:48;;;;;;;21.88;12.98;;;;;;;;;;6228785;28;20120;-80
2022/03/12 17:24:51;;;;;;;24.00;16.80;;;;;;;;;;6236041;28;20065;-79
2022/03/12 17:27:57;;;;;;;16.37;11.87;;;;;;;;;;6202256;28;20073;-80
2022/03/12 17:31:00;;;;;;;19.52;12.20;;;;;;;;;;6235811;28;20048;-80
2022/03/12 17:34:04;;;;;;;20.27;11.52;;;;;;;;;;6242136;28;20061;-80
2022/03/12 17:37:06;;;;;;;21.85;12.25;;;;;;;;;;6239303;28;20055;-80
2022/03/12 17:40:09;;;;;;;25.05;15.73;;;;;;;;;;6215382;28;20041;-80
2022/03/12 17:43:11;;;;;;;21.55;13.07;;;;;;;;;;6224474;28;20061;-80
2022/03/12 17:46:13;;;;;;;23.58;13.18;;;;;;;;;;6220439;28;20061;-83
2022/03/12 17:49:15;;;;;;;22.52;13.27;;;;;;;;;;6213483;28;20054;-77
2022/03/12 17:52:22;;;;;;;20.35;11.73;;;;;;;;;;6212138;28;20046;-78
2022/03/12 17:55:25;;;;;;;21.77;11.93;;;;;;;;;;6212243;28;20128;-79
2022/03/12 17:58:26;;;;;;;24.45;12.52;;;;;;;;;;6214760;28;20053;-78
2022/03/12 18:01:29;;;;;;;24.30;12.80;;;;;;;;;;6229036;28;20140;-78
2022/03/12 18:04:31;;;;;;;30.48;16.13;;;;;;;;;;6229721;28;20578;-78
2022/03/12 18:07:33;;;;;;;29.02;15.38;;;;;;;;;;6215810;28;20248;-78
2022/03/12 18:10:37;;;;;;;25.83;14.02;;;;;;;;;;6215668;28;20132;-78
2022/03/12 18:13:39;;;;;;;26.92;13.70;;;;;;;;;;6215390;28;20107;-80
2022/03/12 18:16:40;;;;;;;23.20;11.68;;;;;;;;;;6214698;28;20052;-78
2022/03/12 18:19:42;;;;;;;19.55;10.23;;;;;;;;;;6233424;28;20077;-79